Flight Track Log - Related Links

Times and Time Zones

All times are in EDT time to prevent confusion due to time zone crossing. See the CHQ4746 flight status page for this flight to view local times or setup timezone preferences in your user account.

Time Position Orientation Groundspeed Altitude Reporting Facility
EDT Latitude Longitude Course Direction KTS MPH feet Rate Location/Type
Mon 05:58:25 AM 38.1500 -85.7167 169° South 160 184 1,200  Level Louisville TRACON
Mon 05:59:50 AM 38.0833 -85.7000 169° South 225 259 3,600 1,699 Climbing Louisville TRACON
Mon 06:00:18 AM 38.0792 -85.6725 101° East 206 237 4,400 2,157 Climbing Indianapolis Center
Mon 06:01:19 AM 38.1236 -85.6336 35° Northeast 256 295 6,800 2,331 Climbing Indianapolis Center
Mon 06:02:19 AM 38.1933 -85.6703 338° Northwest 265 305 9,100 2,200 Climbing Indianapolis Center
Mon 06:03:19 AM 38.2617 -85.7100 335° Northwest 269 310 11,200 1,950 Climbing Indianapolis Center
Mon 06:04:19 AM 38.3333 -85.7528 335° Northwest 282 325 13,000 1,686 Climbing Indianapolis Center
Mon 06:05:20 AM 38.4108 -85.7989 335° Northwest 303 349 14,600 1,537 Climbing Indianapolis Center
Mon 06:06:20 AM 38.4925 -85.8469 335° Northwest 319 367 16,100 1,300 Climbing Indianapolis Center
Mon 06:07:20 AM 38.5797 -85.8983 335° Northwest 339 390 17,200 1,140 Climbing Indianapolis Center
Mon 06:08:21 AM 38.6764 -85.9136 353° North 355 409 18,400 1,190 Climbing Indianapolis Center
Mon 06:09:21 AM 38.7517 -85.8178 45° Northeast 340 391 19,600 1,150 Climbing Indianapolis Center
Mon 06:10:21 AM 38.8050 -85.7167 56° Northeast 343 395 20,700 1,240 Climbing Indianapolis Center
Mon 06:11:22 AM 38.8600 -85.6119 56° Northeast 353 406 22,100 1,339 Climbing Indianapolis Center
Mon 06:12:22 AM 38.9139 -85.5094 56° Northeast 351 404 23,400 1,350 Climbing Indianapolis Center
Mon 06:13:22 AM 38.9678 -85.4058 56° Northeast 352 405 24,800 1,388 Climbing Indianapolis Center
Mon 06:14:23 AM 39.0206 -85.3042 56° Northeast 348 400 26,200 1,091 Climbing Indianapolis Center
Mon 06:15:23 AM 39.0739 -85.2014 56° Northeast 348 400 27,000 397 Climbing Indianapolis Center
Mon 06:16:24 AM 39.1317 -85.0919 56° Northeast 369 425 27,000  Level Indianapolis Center
Mon 06:17:24 AM 39.1889 -84.9789 57° Northeast 377 434 27,000  Level Indianapolis Center
Mon 06:18:24 AM 39.2478 -84.8653 56° Northeast 382 440 27,000  Level Indianapolis Center
Mon 06:19:25 AM 39.3086 -84.7486 56° Northeast 387 445 27,000  Level Indianapolis Center
Mon 06:20:25 AM 39.3678 -84.6322 57° Northeast 382 440 27,000  Level Indianapolis Center
Mon 06:21:26 AM 39.4258 -84.5164 57° Northeast 380 437 27,000 -50 Level Indianapolis Center
Mon 06:22:26 AM 39.4836 -84.4019 57° Northeast 379 436 26,900  Descending Indianapolis Center
Mon 06:23:27 AM 39.5428 -84.2864 56° Northeast 379 436 27,000 50 Climbing Indianapolis Center
Mon 06:24:27 AM 39.6028 -84.1656 57° Northeast 391 450 27,000  Level Indianapolis Center
Mon 06:25:28 AM 39.6642 -84.0442 57° Northeast 400 460 27,000  Level Indianapolis Center
Mon 06:26:28 AM 39.7417 -83.9383 46° Northeast 403 464 27,000 -149 Level Indianapolis Center
Mon 06:27:29 AM 39.8333 -83.8419 39° Northeast 414 476 26,700 -744 Descending Indianapolis Center
Mon 06:28:29 AM 39.9247 -83.7425 40° Northeast 418 481 25,500 -1,240 Descending Indianapolis Center
Mon 06:29:30 AM 40.0147 -83.6464 39° Northeast 411 473 24,200 -744 Descending Indianapolis Center
Mon 06:30:30 AM 40.1011 -83.5536 39° Northeast 396 456 24,000 -397 Descending Indianapolis Center
Mon 06:31:31 AM 40.1872 -83.4594 40° Northeast 397 457 23,400 -694 Descending Indianapolis Center
Mon 06:32:31 AM 40.2578 -83.3769 42° Northeast 402 463 22,600 -1,041 Descending Indianapolis Center
Mon 06:33:32 AM 40.3397 -83.2719 44° Northeast 406 467 21,300 -1,525 Descending Indianapolis Center
Mon 06:34:33 AM 40.4186 -83.1711 44° Northeast 394 453 19,500 -1,140 Descending Indianapolis Center
Mon 06:35:33 AM 40.4919 -83.0764 44° Northeast 370 426 19,000 -298 Descending Indianapolis Center
Mon 06:36:34 AM 40.5783 -82.9661 44° Northeast 385 443 18,900 -1,240 Descending Indianapolis Center
Mon 06:37:34 AM 40.6567 -82.8639 45° Northeast 391 450 16,500 -2,280 Descending Indianapolis Center
Mon 06:38:14 AM 40.6978 -82.8125 43° Northeast 374 430 15,100 -2,257 Descending Cleveland Center
Mon 06:39:15 AM 40.7706 -82.7189 44° Northeast 367 422 12,700 -2,571 Descending Cleveland Center
Mon 06:39:45 AM 40.8131 -82.6653 44° Northeast 351 404 11,200 -2,632 Descending Cleveland Center
Mon 06:40:12 AM 40.8367 -82.6278 50° Northeast 357 411 10,200 -828 Descending Cleveland Center
Mon 06:41:12 AM 40.9008 -82.5472 43° Northeast 323 372 10,000 -99 Descending Cleveland Center
Mon 06:42:13 AM 40.9831 -82.4864 29° Northeast 323 372 10,000 -246 Level Cleveland Center
Mon 06:43:14 AM 41.0467 -82.4278 35° Northeast 303 349 9,500 -1,091 Descending Cleveland Center
Mon 06:44:14 AM 41.0958 -82.3464 51° Northeast 261 300 7,800 -1,714 Descending Cleveland Center
Mon 06:45:13 AM 41.1406 -82.2761 50° Northeast 251 289 6,100 -871 Descending Cleveland Center
Mon 06:46:18 AM 41.1897 -82.2028 48° Northeast 250 288 6,000 -151 Descending Cleveland Center
Mon 06:47:12 AM 41.2322 -82.1347 50° Northeast 252 290 5,800 -783 Descending Cleveland Center
Mon 06:48:13 AM 41.2769 -82.0642 50° Northeast 252 290 4,500 -1,317 Descending Cleveland Center
Mon 06:49:15 AM 41.3217 -81.9958 49° Northeast 252 290 3,100 -1,350 Descending Cleveland Center
Mon 06:49:33 AM 41.3367 -81.9742 47° Northeast 240 276 2,700 -1,154 Descending Cleveland Center
Mon 06:50:33 AM 41.3706 -81.9194 50° Northeast 164 189 1,600 -885 Descending Cleveland Center
Mon 06:51:35 AM 41.3961 -81.8814 48° Northeast 140 161 900 -677 Descending Cleveland Center

Login

Don't have an account? Register now (free) for customized features, flight alerts, and more!